createdAt,value
2023-05-25T00:01:01.251Z,102375.28
2023-05-25T00:03:31.606Z,102374.56
2023-05-25T00:06:01.751Z,102372.72
2023-05-25T00:08:29.962Z,102373.81
2023-05-25T00:10:58.435Z,102375.72
2023-05-25T00:13:27.732Z,102377.59
2023-05-25T00:15:55.867Z,102374.06
2023-05-25T00:18:24.952Z,102382.97
2023-05-25T00:20:54.176Z,102386.50
2023-05-25T00:23:22.525Z,102390.00
2023-05-25T00:25:50.490Z,102387.50
2023-05-25T00:28:18.496Z,102388.50
2023-05-25T00:30:47.828Z,102389.31
2023-05-25T00:33:16.188Z,102383.94
2023-05-25T00:35:44.855Z,102381.34
2023-05-25T00:38:14.609Z,102385.69
2023-05-25T00:40:43.000Z,102379.66
2023-05-25T00:43:12.404Z,102389.63
2023-05-25T00:45:40.584Z,102381.53
2023-05-25T00:48:10.493Z,102381.63
2023-05-25T00:50:40.882Z,102379.00
2023-05-25T00:53:11.222Z,102385.25
2023-05-25T00:55:42.965Z,102387.16
2023-05-25T00:58:12.522Z,102380.81
2023-05-25T01:00:44.109Z,102375.44
2023-05-25T01:03:17.901Z,102380.06
2023-05-25T01:05:50.317Z,102379.13
2023-05-25T01:08:21.243Z,102382.69
2023-05-25T01:10:50.915Z,102379.09
2023-05-25T01:13:20.211Z,102379.19
2023-05-25T01:15:48.858Z,102381.38
2023-05-25T01:18:19.062Z,102383.00
2023-05-25T01:21:13.094Z,102381.13
2023-05-25T01:23:48.366Z,102386.75
2023-05-25T01:26:19.250Z,102377.81
2023-05-25T01:28:52.782Z,102389.38
2023-05-25T01:31:23.888Z,102387.63
2023-05-25T01:33:53.947Z,102391.91
2023-05-25T01:36:23.298Z,102393.72
2023-05-25T01:38:52.239Z,102397.41
2023-05-25T01:41:20.356Z,102398.25
2023-05-25T01:43:48.721Z,102395.38
2023-05-25T01:46:25.248Z,102387.88
2023-05-25T01:49:04.150Z,102386.75
2023-05-25T01:51:39.864Z,102389.50
2023-05-25T01:54:13.257Z,102382.59
2023-05-25T01:56:42.864Z,102382.66
2023-05-25T01:59:12.341Z,102379.00
2023-05-25T02:01:42.209Z,102380.13
2023-05-25T02:04:10.705Z,102372.97
2023-05-25T02:06:40.320Z,102374.06
2023-05-25T02:09:08.278Z,102379.34
2023-05-25T02:11:36.352Z,102380.38
2023-05-25T02:14:04.443Z,102382.41
2023-05-25T02:16:33.429Z,102379.84
2023-05-25T02:19:01.556Z,102374.16
2023-05-25T02:21:29.485Z,102374.38
2023-05-25T02:23:59.156Z,102382.31
2023-05-25T02:26:27.564Z,102376.84
2023-05-25T02:28:55.602Z,102392.03
2023-05-25T02:31:23.588Z,102385.81
2023-05-25T02:33:51.528Z,102383.22
2023-05-25T02:36:19.557Z,102384.50
2023-05-25T02:38:49.887Z,102389.78
2023-05-25T02:41:20.063Z,102378.28
2023-05-25T02:43:47.943Z,102388.06
2023-05-25T02:46:15.928Z,102387.31
2023-05-25T02:48:44.440Z,102385.47
2023-05-25T02:51:12.354Z,102390.91
2023-05-25T02:53:40.218Z,102392.78
2023-05-25T02:56:10.446Z,102396.47
2023-05-25T02:58:39.761Z,102385.88
2023-05-25T03:01:10.592Z,102387.72
2023-05-25T03:03:38.847Z,102393.91
2023-05-25T03:06:07.221Z,102396.78
2023-05-25T03:08:35.738Z,102408.47
2023-05-25T03:11:03.812Z,102417.34
2023-05-25T03:13:32.012Z,102415.28
2023-05-25T03:16:01.333Z,102412.22
2023-05-25T03:18:29.375Z,102406.66
2023-05-25T03:20:57.692Z,102420.25
2023-05-25T03:23:25.766Z,102421.13
2023-05-25T03:25:53.920Z,102413.84
2023-05-25T03:28:24.762Z,102422.69
2023-05-25T03:30:52.843Z,102421.94
2023-05-25T03:33:22.180Z,102433.38
2023-05-25T03:35:50.095Z,102426.91
2023-05-25T03:38:18.177Z,102431.13
2023-05-25T03:40:46.160Z,102426.41
2023-05-25T03:43:14.380Z,102427.25
2023-05-25T03:45:42.516Z,102418.72
2023-05-25T03:48:10.561Z,102425.41
2023-05-25T03:50:41.134Z,102435.25
2023-05-25T03:53:09.711Z,102438.69
2023-05-25T03:55:37.791Z,102433.56
2023-05-25T03:58:05.880Z,102439.66
2023-05-25T04:00:33.804Z,102446.47
2023-05-25T04:03:01.817Z,102453.91
2023-05-25T04:05:29.868Z,102456.88
2023-05-25T04:07:59.339Z,102455.53
2023-05-25T04:10:27.269Z,102455.88
2023-05-25T04:12:56.676Z,102469.31
2023-05-25T04:15:25.194Z,102466.22
2023-05-25T04:17:53.196Z,102471.50
2023-05-25T04:20:21.536Z,102473.69
2023-05-25T04:22:50.091Z,102468.47
2023-05-25T04:25:20.068Z,102457.00
2023-05-25T04:27:49.037Z,102466.78
2023-05-25T04:30:17.254Z,102464.91
2023-05-25T04:32:46.627Z,102469.50
2023-05-25T04:35:15.544Z,102468.44
2023-05-25T04:37:43.476Z,102468.91
2023-05-25T04:40:14.488Z,102467.16
2023-05-25T04:42:45.062Z,102472.19
2023-05-25T04:45:17.556Z,102475.97
2023-05-25T04:47:46.142Z,102475.72
2023-05-25T04:50:14.581Z,102481.72
2023-05-25T04:52:43.087Z,102475.97
2023-05-25T04:55:12.657Z,102475.78
2023-05-25T04:57:40.800Z,102477.25
2023-05-25T05:00:12.792Z,102481.19
2023-05-25T05:02:41.711Z,102481.38
2023-05-25T05:05:11.327Z,102477.16
2023-05-25T05:07:39.416Z,102484.28
2023-05-25T05:10:08.368Z,102479.56
2023-05-25T05:12:36.706Z,102480.88
2023-05-25T05:15:05.398Z,102478.78
2023-05-25T05:17:34.817Z,102481.25
2023-05-25T05:20:04.783Z,102479.44
2023-05-25T05:22:34.845Z,102492.06
2023-05-25T05:25:02.971Z,102500.78
2023-05-25T05:27:30.968Z,102493.88
2023-05-25T05:29:58.872Z,102499.66
2023-05-25T05:32:26.850Z,102497.56
2023-05-25T05:34:56.666Z,102494.78
2023-05-25T05:37:24.892Z,102494.22
2023-05-25T05:39:53.426Z,102494.50
2023-05-25T05:42:21.620Z,102503.84
2023-05-25T05:44:49.587Z,102501.72
2023-05-25T05:47:18.896Z,102499.28
2023-05-25T05:49:47.553Z,102508.84
2023-05-25T05:52:17.305Z,102511.75
2023-05-25T05:54:45.281Z,102512.28
2023-05-25T05:57:13.657Z,102508.81
2023-05-25T05:59:42.121Z,102513.09
2023-05-25T06:02:10.170Z,102510.09
2023-05-25T06:04:38.566Z,102506.97
2023-05-25T06:07:07.106Z,102509.00
2023-05-25T06:09:36.829Z,102509.69
2023-05-25T06:12:05.278Z,102514.13
2023-05-25T06:14:33.655Z,102517.56
2023-05-25T06:17:02.211Z,102512.53
2023-05-25T06:19:30.612Z,102509.53
2023-05-25T06:21:58.850Z,102515.84
2023-05-25T06:24:26.771Z,102517.19
2023-05-25T06:26:56.196Z,102520.94
2023-05-25T06:29:24.422Z,102521.63
2023-05-25T06:31:52.577Z,102515.22
2023-05-25T06:34:20.706Z,102519.72
2023-05-25T06:36:48.812Z,102507.69
2023-05-25T06:39:16.817Z,102513.31
2023-05-25T06:41:45.257Z,102511.78
2023-05-25T06:44:14.791Z,102510.84
2023-05-25T06:46:43.078Z,102513.28
2023-05-25T06:49:11.448Z,102512.94
2023-05-25T06:51:39.409Z,102515.25
2023-05-25T06:54:08.688Z,102521.63
2023-05-25T06:56:36.727Z,102509.16
2023-05-25T06:59:04.778Z,102510.06
2023-05-25T07:01:34.226Z,102517.44
2023-05-25T07:04:02.852Z,102516.41
2023-05-25T07:06:31.029Z,102512.50
2023-05-25T07:08:59.116Z,102523.81
2023-05-25T07:11:28.156Z,102528.41
2023-05-25T07:13:56.481Z,102521.66
2023-05-25T07:16:25.695Z,102524.13
2023-05-25T07:18:55.088Z,102510.94
2023-05-25T07:21:22.943Z,102514.69
2023-05-25T07:23:51.026Z,102515.09
2023-05-25T07:26:21.346Z,102515.47
2023-05-25T07:28:49.344Z,102524.28
2023-05-25T07:31:17.730Z,102514.44
2023-05-25T07:33:45.734Z,102516.56
2023-05-25T07:36:15.148Z,102514.56
2023-05-25T07:38:43.284Z,102513.69
2023-05-25T07:41:13.469Z,102526.81
2023-05-25T07:43:41.476Z,102523.94
2023-05-25T07:46:09.491Z,102520.53
2023-05-25T07:48:37.860Z,102528.34
2023-05-25T07:51:05.985Z,102539.19
2023-05-25T07:53:35.417Z,102535.31
2023-05-25T07:56:03.712Z,102544.41
2023-05-25T07:58:31.558Z,102540.78
2023-05-25T08:00:59.490Z,102537.00
2023-05-25T08:03:39.737Z,102540.91
2023-05-25T08:06:15.703Z,102544.78
2023-05-25T08:08:45.949Z,102546.19
2023-05-25T08:11:14.099Z,102543.91
2023-05-25T08:13:42.068Z,102549.34
2023-05-25T08:16:10.672Z,102547.22
2023-05-25T08:18:39.272Z,102543.69
2023-05-25T08:21:07.210Z,102549.91
2023-05-25T08:23:35.289Z,102546.03
2023-05-25T08:26:15.551Z,102547.63
2023-05-25T08:28:52.777Z,102545.78
2023-05-25T08:31:20.723Z,102551.41
2023-05-25T08:33:48.655Z,102550.44
2023-05-25T08:36:16.659Z,102548.03
2023-05-25T08:38:44.715Z,102544.22
2023-05-25T08:41:14.406Z,102539.44
2023-05-25T08:43:43.055Z,102542.91
2023-05-25T08:46:11.078Z,102540.44
2023-05-25T08:48:42.438Z,102545.81
2023-05-25T08:51:12.232Z,102550.84
2023-05-25T08:53:41.993Z,102545.81
2023-05-25T08:56:15.606Z,102554.22
2023-05-25T08:58:47.850Z,102562.34
2023-05-25T09:01:20.018Z,102557.22
2023-05-25T09:03:50.258Z,102565.91
2023-05-25T09:06:19.333Z,102569.28
2023-05-25T09:08:48.490Z,102569.47
2023-05-25T09:11:30.663Z,102572.88
2023-05-25T09:14:04.891Z,102573.81
2023-05-25T09:16:33.438Z,102572.75
2023-05-25T09:19:03.114Z,102572.69
2023-05-25T09:21:31.760Z,102565.09
2023-05-25T09:24:01.925Z,102578.31
2023-05-25T09:26:31.355Z,102577.19
2023-05-25T09:28:59.625Z,102576.69
2023-05-25T09:31:29.935Z,102576.19
2023-05-25T09:34:00.293Z,102578.22
2023-05-25T09:36:29.015Z,102566.38
2023-05-25T09:38:57.479Z,102577.00
2023-05-25T09:41:27.828Z,102574.97
2023-05-25T09:44:06.657Z,102576.50
2023-05-25T09:46:39.466Z,102584.31
2023-05-25T09:49:10.387Z,102578.44
2023-05-25T09:51:38.885Z,102577.34
2023-05-25T09:54:11.671Z,102588.06
2023-05-25T09:56:39.788Z,102583.91
2023-05-25T09:59:09.137Z,102578.91
2023-05-25T10:01:37.864Z,102574.03
2023-05-25T10:04:06.094Z,102588.75
2023-05-25T10:06:35.151Z,102585.38
2023-05-25T10:09:05.055Z,102571.22
2023-05-25T10:11:36.283Z,102579.25
2023-05-25T10:14:08.155Z,102583.97
2023-05-25T10:16:41.503Z,102580.06
2023-05-25T10:19:18.147Z,102588.66
2023-05-25T10:21:52.000Z,102593.34
2023-05-25T10:24:29.111Z,102593.97
2023-05-25T10:27:10.930Z,102586.72
2023-05-25T10:29:43.982Z,102594.34
2023-05-25T10:32:15.201Z,102597.47
2023-05-25T10:34:43.317Z,102595.59
2023-05-25T10:37:13.506Z,102585.03
2023-05-25T10:39:43.938Z,102598.84
2023-05-25T10:42:13.419Z,102602.66
2023-05-25T10:44:43.497Z,102603.19
2023-05-25T10:47:13.597Z,102595.06
2023-05-25T10:49:54.569Z,102604.28
2023-05-25T10:52:23.878Z,102595.50
2023-05-25T10:54:57.670Z,102587.41
2023-05-25T10:57:26.946Z,102596.47
2023-05-25T10:59:59.984Z,102591.16
2023-05-25T11:02:32.340Z,102585.03
2023-05-25T11:05:33.434Z,102584.19
2023-05-25T11:08:02.941Z,102582.25
2023-05-25T11:10:54.173Z,102579.53
2023-05-25T11:13:23.830Z,102581.84
2023-05-25T11:16:20.312Z,102579.53
2023-05-25T11:18:54.054Z,102579.63
2023-05-25T11:21:43.756Z,102569.44
2023-05-25T11:24:16.920Z,102571.47
2023-05-25T11:26:59.741Z,102569.59
2023-05-25T11:29:32.013Z,102580.13
2023-05-25T11:32:01.295Z,102576.66
2023-05-25T11:34:33.218Z,102567.03
2023-05-25T11:37:03.847Z,102567.63
2023-05-25T11:39:32.895Z,102563.44
2023-05-25T11:42:07.134Z,102570.75
2023-05-25T11:44:38.053Z,102562.47
2023-05-25T11:47:10.174Z,102563.56
2023-05-25T11:49:45.348Z,102563.22
2023-05-25T11:52:14.774Z,102562.59
2023-05-25T11:54:43.142Z,102568.38
2023-05-25T11:57:18.108Z,102565.78
2023-05-25T11:59:50.995Z,102553.94
2023-05-25T12:02:19.827Z,102563.53
2023-05-25T12:04:56.336Z,102562.97
2023-05-25T12:07:24.799Z,102559.91
2023-05-25T12:09:52.884Z,102556.94
2023-05-25T12:12:21.313Z,102562.72
2023-05-25T12:14:50.416Z,102561.88
2023-05-25T12:17:20.073Z,102547.06
2023-05-25T12:19:49.406Z,102556.69
2023-05-25T12:22:18.791Z,102546.69
2023-05-25T12:24:46.978Z,102553.03
2023-05-25T12:27:19.471Z,102554.56
2023-05-25T12:29:48.317Z,102549.06
2023-05-25T12:32:16.567Z,102548.03
2023-05-25T12:34:45.046Z,102548.91
2023-05-25T12:37:21.222Z,102549.63
2023-05-25T12:39:50.882Z,102545.00
2023-05-25T12:42:19.240Z,102541.34
2023-05-25T12:44:47.641Z,102544.78
2023-05-25T12:47:19.903Z,102546.41
2023-05-25T12:49:51.324Z,102539.53
2023-05-25T12:52:37.871Z,102536.94
2023-05-25T12:55:25.913Z,102545.56
2023-05-25T12:57:55.871Z,102545.03
2023-05-25T13:00:25.728Z,102537.38
2023-05-25T13:02:54.948Z,102539.50
2023-05-25T13:05:24.941Z,102532.06
2023-05-25T13:07:56.382Z,102536.56
2023-05-25T13:10:25.948Z,102533.69
2023-05-25T13:12:57.093Z,102534.78
2023-05-25T13:15:27.982Z,102530.72
2023-05-25T13:17:58.898Z,102532.22
2023-05-25T13:20:29.996Z,102525.69
2023-05-25T13:22:59.564Z,102532.00
2023-05-25T13:25:28.251Z,102523.47
2023-05-25T13:27:58.184Z,102520.16
2023-05-25T13:30:26.711Z,102521.78
2023-05-25T13:32:55.041Z,102519.41
2023-05-25T13:35:37.636Z,102497.69
2023-05-25T13:38:07.230Z,102506.34
2023-05-25T13:40:35.382Z,102503.28
2023-05-25T13:43:03.558Z,102501.41
2023-05-25T13:45:31.503Z,102502.19
2023-05-25T13:47:59.557Z,102498.94
2023-05-25T13:50:28.094Z,102498.31
2023-05-25T13:52:55.972Z,102498.09
2023-05-25T13:55:25.324Z,102502.28
2023-05-25T13:57:53.748Z,102500.84
2023-05-25T14:00:22.949Z,102495.63
2023-05-25T14:02:50.951Z,102509.31
2023-05-25T14:05:20.016Z,102492.59
2023-05-25T14:07:48.247Z,102497.16
2023-05-25T14:10:16.299Z,102504.94
2023-05-25T14:12:46.031Z,102494.09
2023-05-25T14:15:14.137Z,102497.16
2023-05-25T14:17:42.045Z,102499.38
2023-05-25T14:20:10.844Z,102493.91
2023-05-25T14:22:39.128Z,102492.47
2023-05-25T14:25:08.538Z,102503.69
2023-05-25T14:27:36.714Z,102491.97
2023-05-25T14:30:08.243Z,102497.91
2023-05-25T14:32:36.212Z,102500.94
2023-05-25T14:35:04.498Z,102493.91
2023-05-25T14:37:32.632Z,102493.47
2023-05-25T14:40:01.726Z,102502.31
2023-05-25T14:42:32.328Z,102501.31
2023-05-25T14:45:00.416Z,102492.16
2023-05-25T14:47:29.899Z,102486.69
2023-05-25T14:49:57.790Z,102497.63
2023-05-25T14:52:25.626Z,102489.28
2023-05-25T14:54:53.657Z,102482.59
2023-05-25T14:57:21.650Z,102491.84
2023-05-25T14:59:49.840Z,102486.78
2023-05-25T15:02:17.992Z,102486.91
2023-05-25T15:04:48.067Z,102498.66
2023-05-25T15:07:16.424Z,102488.53
2023-05-25T15:09:45.370Z,102494.84
2023-05-25T15:12:13.275Z,102490.75
2023-05-25T15:14:42.380Z,102494.44
2023-05-25T15:17:11.086Z,102486.78
2023-05-25T15:19:39.451Z,102494.94
2023-05-25T15:22:08.865Z,102488.75
2023-05-25T15:24:37.004Z,102479.16
2023-05-25T15:27:06.826Z,102478.03
2023-05-25T15:29:34.825Z,102475.91
2023-05-25T15:32:03.203Z,102489.13
2023-05-25T15:34:31.378Z,102489.50
2023-05-25T15:37:00.365Z,102481.88
2023-05-25T15:39:33.818Z,102487.34
2023-05-25T15:42:01.864Z,102479.59
2023-05-25T15:44:30.306Z,102486.13
2023-05-25T15:46:58.433Z,102482.44
2023-05-25T15:49:26.639Z,102479.59
2023-05-25T15:51:54.816Z,102473.78
2023-05-25T15:54:22.962Z,102487.72
2023-05-25T15:56:52.469Z,102478.69
2023-05-25T15:59:20.594Z,102482.56
2023-05-25T16:01:48.882Z,102483.63
2023-05-25T16:04:17.077Z,102486.69
2023-05-25T16:06:45.324Z,102491.16
2023-05-25T16:09:14.412Z,102492.47
2023-05-25T16:11:42.440Z,102493.16
2023-05-25T16:14:12.759Z,102490.78
2023-05-25T16:16:42.733Z,102488.31
2023-05-25T16:19:13.636Z,102488.47
2023-05-25T16:21:42.252Z,102487.72
2023-05-25T16:24:11.137Z,102486.84
2023-05-25T16:26:39.295Z,102486.09
2023-05-25T16:29:07.396Z,102490.75
2023-05-25T16:31:36.827Z,102485.88
2023-05-25T16:34:05.074Z,102491.41
2023-05-25T16:36:33.158Z,102491.09
2023-05-25T16:39:01.644Z,102487.19
2023-05-25T16:41:29.659Z,102490.44
2023-05-25T16:43:58.134Z,102487.63
2023-05-25T16:46:26.442Z,102476.97
2023-05-25T16:48:55.871Z,102482.94
2023-05-25T16:51:23.807Z,102476.72
2023-05-25T16:53:53.088Z,102479.94
2023-05-25T16:56:24.544Z,102472.94
2023-05-25T16:58:52.534Z,102488.06
2023-05-25T17:01:20.726Z,102480.00
2023-05-25T17:03:49.423Z,102481.22
2023-05-25T17:06:18.982Z,102474.78
2023-05-25T17:08:47.910Z,102487.38
2023-05-25T17:11:15.973Z,102479.44
2023-05-25T17:13:43.895Z,102479.25
2023-05-25T17:16:12.534Z,102483.56
2023-05-25T17:18:41.819Z,102483.97
2023-05-25T17:21:09.806Z,102479.53
2023-05-25T17:23:39.169Z,102482.72
2023-05-25T17:26:07.265Z,102478.19
2023-05-25T17:28:35.321Z,102483.09
2023-05-25T17:31:03.679Z,102482.09
2023-05-25T17:33:31.822Z,102482.56
2023-05-25T17:35:59.879Z,102491.66
2023-05-25T17:38:28.505Z,102487.97
2023-05-25T17:40:58.067Z,102484.03
2023-05-25T17:43:25.965Z,102485.03
2023-05-25T17:45:54.463Z,102490.44
2023-05-25T17:48:22.778Z,102481.44
2023-05-25T17:50:50.652Z,102494.69
2023-05-25T17:53:18.548Z,102488.81
2023-05-25T17:55:46.679Z,102485.47
2023-05-25T17:58:16.413Z,102487.31
2023-05-25T18:00:44.459Z,102491.22
2023-05-25T18:03:13.774Z,102494.03
2023-05-25T18:05:41.826Z,102492.94
2023-05-25T18:08:11.293Z,102487.78
2023-05-25T18:10:39.368Z,102490.38
2023-05-25T18:13:07.455Z,102499.91
2023-05-25T18:15:38.441Z,102501.63
2023-05-25T18:18:08.446Z,102504.66
2023-05-25T18:20:36.507Z,102507.06
2023-05-25T18:23:06.663Z,102507.38
2023-05-25T18:25:35.160Z,102503.50
2023-05-25T18:28:03.320Z,102512.25
2023-05-25T18:30:31.295Z,102505.97
2023-05-25T18:33:01.099Z,102512.84
2023-05-25T18:35:29.355Z,102516.81
2023-05-25T18:37:57.330Z,102518.19
2023-05-25T18:40:25.351Z,102513.53
2023-05-25T18:42:53.787Z,102523.56
2023-05-25T18:45:21.821Z,102510.50
2023-05-25T18:47:49.914Z,102516.41
2023-05-25T18:50:20.048Z,102521.97
2023-05-25T18:52:50.877Z,102519.50
2023-05-25T18:55:19.370Z,102525.50
2023-05-25T18:57:47.798Z,102527.94
2023-05-25T19:00:17.078Z,102530.81
2023-05-25T19:02:45.443Z,102539.88
2023-05-25T19:05:15.251Z,102536.31
2023-05-25T19:07:58.425Z,102536.00
2023-05-25T19:10:28.221Z,102546.63
2023-05-25T19:13:00.653Z,102533.44
2023-05-25T19:15:28.568Z,102542.47
2023-05-25T19:17:56.920Z,102551.81
2023-05-25T19:20:25.134Z,102545.44
2023-05-25T19:22:54.498Z,102554.03
2023-05-25T19:25:22.480Z,102557.25
2023-05-25T19:27:50.385Z,102559.47
2023-05-25T19:30:18.460Z,102568.28
2023-05-25T19:32:46.707Z,102565.75
2023-05-25T19:35:15.161Z,102568.81
2023-05-25T19:37:43.177Z,102577.75
2023-05-25T19:40:13.697Z,102575.44
2023-05-25T19:42:41.954Z,102583.47
2023-05-25T19:45:11.163Z,102577.94
2023-05-25T19:47:39.173Z,102582.53
2023-05-25T19:50:08.731Z,102590.19
2023-05-25T19:52:36.752Z,102588.53
2023-05-25T19:55:04.974Z,102598.53
2023-05-25T19:57:34.416Z,102598.88
2023-05-25T20:00:02.636Z,102600.34
2023-05-25T20:02:30.638Z,102605.81
2023-05-25T20:04:58.931Z,102608.41
2023-05-25T20:07:26.871Z,102605.91
2023-05-25T20:09:54.850Z,102609.19
2023-05-25T20:12:22.929Z,102609.34
2023-05-25T20:14:52.200Z,102602.13
2023-05-25T20:17:20.091Z,102617.47
2023-05-25T20:19:48.414Z,102619.13
2023-05-25T20:22:16.448Z,102614.00
2023-05-25T20:24:44.403Z,102614.94
2023-05-25T20:27:12.470Z,102617.19
2023-05-25T20:29:40.646Z,102618.31
2023-05-25T20:32:13.054Z,102612.13
2023-05-25T20:34:44.385Z,102616.72
2023-05-25T20:37:12.920Z,102624.59
2023-05-25T20:39:44.802Z,102628.38
2023-05-25T20:42:14.109Z,102624.91
2023-05-25T20:44:42.178Z,102625.00
2023-05-25T20:47:11.854Z,102636.09
2023-05-25T20:49:43.026Z,102633.84
2023-05-25T20:52:12.335Z,102623.03
2023-05-25T20:54:44.633Z,102639.88
2023-05-25T20:57:13.486Z,102638.28
2023-05-25T20:59:43.082Z,102633.00
2023-05-25T21:02:12.846Z,102638.16
2023-05-25T21:04:45.349Z,102634.00
2023-05-25T21:07:13.617Z,102633.09
2023-05-25T21:09:44.728Z,102639.75
2023-05-25T21:12:13.322Z,102631.94
2023-05-25T21:14:43.767Z,102650.97
2023-05-25T21:17:15.016Z,102649.44
2023-05-25T21:19:43.988Z,102649.41
2023-05-25T21:22:14.111Z,102641.75
2023-05-25T21:24:42.725Z,102644.84
2023-05-25T21:27:11.207Z,102643.72
2023-05-25T21:29:39.720Z,102643.72
2023-05-25T21:32:07.863Z,102647.53
2023-05-25T21:34:40.036Z,102636.19
2023-05-25T21:37:08.108Z,102634.38
2023-05-25T21:39:36.196Z,102639.91
2023-05-25T21:42:04.846Z,102641.78
2023-05-25T21:44:32.856Z,102638.75
2023-05-25T21:47:00.965Z,102649.59
2023-05-25T21:49:29.032Z,102642.28
2023-05-25T21:51:58.662Z,102641.63
2023-05-25T21:54:26.809Z,102646.06
2023-05-25T21:56:55.598Z,102650.81
2023-05-25T21:59:23.700Z,102652.50
2023-05-25T22:01:51.673Z,102660.25
2023-05-25T22:04:19.714Z,102656.00
2023-05-25T22:06:47.930Z,102663.50
2023-05-25T22:09:17.412Z,102662.31
2023-05-25T22:11:45.409Z,102665.97
2023-05-25T22:14:13.909Z,102669.38
2023-05-25T22:16:41.854Z,102669.38
2023-05-25T22:19:12.618Z,102672.63
2023-05-25T22:21:40.739Z,102677.41
2023-05-25T22:24:09.360Z,102680.19
2023-05-25T22:26:39.014Z,102677.50
2023-05-25T22:29:07.304Z,102685.78
2023-05-25T22:31:35.385Z,102676.03
2023-05-25T22:34:03.662Z,102679.09
2023-05-25T22:36:31.931Z,102676.28
2023-05-25T22:38:59.895Z,102685.16
2023-05-25T22:41:27.904Z,102681.81
2023-05-25T22:44:00.518Z,102686.28
2023-05-25T22:46:28.634Z,102677.38
2023-05-25T22:48:57.087Z,102677.63
2023-05-25T22:51:25.515Z,102675.66
2023-05-25T22:53:53.934Z,102680.13
2023-05-25T22:56:22.917Z,102679.06
2023-05-25T22:58:50.915Z,102680.16
2023-05-25T23:01:20.675Z,102680.31
2023-05-25T23:03:48.802Z,102683.34
2023-05-25T23:06:17.128Z,102687.66
2023-05-25T23:08:46.511Z,102692.19
2023-05-25T23:11:14.633Z,102696.09
2023-05-25T23:13:42.849Z,102698.72
2023-05-25T23:16:15.648Z,102700.47
2023-05-25T23:18:45.107Z,102700.09
2023-05-25T23:21:13.106Z,102700.78
2023-05-25T23:23:41.101Z,102696.53
2023-05-25T23:26:09.365Z,102696.41
2023-05-25T23:28:37.365Z,102697.94
2023-05-25T23:31:05.754Z,102702.56
2023-05-25T23:33:36.167Z,102699.28
2023-05-25T23:36:05.858Z,102709.31
2023-05-25T23:38:33.784Z,102713.03
2023-05-25T23:41:01.805Z,102712.19
2023-05-25T23:43:29.925Z,102721.28
2023-05-25T23:45:57.998Z,102716.88
2023-05-25T23:48:25.990Z,102721.84
2023-05-25T23:50:53.990Z,102723.47
2023-05-25T23:53:23.454Z,102713.72
2023-05-25T23:55:51.746Z,102715.66
2023-05-25T23:58:23.455Z,102716.97
